createdAt,value
2023-01-19T18:21:54.901Z,98316.41
2023-01-19T18:25:43.130Z,98319.01
2023-01-19T18:29:31.581Z,98322.15
2023-01-19T18:33:08.869Z,98319.14
2023-01-19T18:36:58.903Z,98316.21
2023-01-19T18:40:37.441Z,98315.08
2023-01-19T18:44:05.598Z,98320.48
2023-01-19T18:47:48.920Z,98325.83
2023-01-19T18:52:06.278Z,98325.27
2023-01-19T19:04:34.235Z,98325.00
2023-01-19T19:19:34.607Z,98327.73
2023-01-19T19:22:39.886Z,98332.93
2023-01-19T19:25:45.280Z,98337.31
2023-01-19T19:28:49.256Z,98336.29
2023-01-19T19:31:57.313Z,98337.75
2023-01-19T19:35:03.423Z,98338.00
2023-01-19T19:38:10.441Z,98338.93
2023-01-19T19:41:21.221Z,98338.80
2023-01-19T19:44:27.959Z,98344.15
2023-01-19T19:47:35.787Z,98345.67
2023-01-19T19:50:46.721Z,98347.63
2023-01-19T19:53:54.127Z,98353.27
2023-01-19T19:56:59.421Z,98353.20
2023-01-19T20:00:13.527Z,98350.77
2023-01-19T20:03:22.290Z,98354.44
2023-01-19T20:06:29.389Z,98355.29
2023-01-19T20:09:44.488Z,98357.69
2023-01-19T20:27:19.497Z,98366.63
2023-01-19T20:31:15.246Z,98371.08
2023-01-19T20:40:15.487Z,98376.19
2023-01-19T20:43:20.595Z,98380.23
2023-01-19T20:46:26.315Z,98378.71
2023-01-19T20:49:34.039Z,98380.41
2023-01-19T20:52:37.333Z,98375.28
2023-01-19T20:55:41.339Z,98377.98
2023-01-19T20:59:44.462Z,98384.52
2023-01-19T21:02:51.635Z,98389.40
2023-01-19T21:06:06.344Z,98392.64
2023-01-19T21:09:12.348Z,98397.58
2023-01-19T21:12:20.028Z,98404.04
2023-01-19T21:15:23.560Z,98408.67
2023-01-19T21:19:43.848Z,98414.13
2023-01-19T21:22:48.330Z,98414.50
2023-01-19T21:25:56.553Z,98418.37
2023-01-19T21:29:26.958Z,98421.73
2023-01-19T21:32:56.076Z,98421.45
2023-01-19T21:36:03.553Z,98430.30
2023-01-19T21:39:09.630Z,98431.80
2023-01-19T21:42:14.562Z,98433.92
2023-01-19T21:45:43.189Z,98434.03
2023-01-19T21:48:49.551Z,98435.09
2023-01-19T21:51:52.379Z,98434.81
2023-01-19T21:54:58.327Z,98437.47
2023-01-19T21:58:08.067Z,98439.75
2023-01-19T22:04:56.096Z,98446.98
2023-01-19T22:08:01.815Z,98454.54
2023-01-19T22:11:30.828Z,98454.84
2023-01-19T22:14:37.819Z,98456.25
2023-01-19T22:18:58.398Z,98464.17
2023-01-19T22:43:22.043Z,98491.48
2023-01-19T22:57:37.128Z,98492.67
2023-01-19T23:02:20.686Z,98491.41
2023-01-19T23:06:42.575Z,98490.24
2023-01-19T23:09:49.578Z,98493.66
2023-01-19T23:13:01.145Z,98491.10
2023-01-19T23:16:56.170Z,98495.59
2023-01-19T23:32:08.893Z,98505.62
2023-01-19T23:35:17.673Z,98510.21
2023-01-19T23:44:42.159Z,98518.44
2023-01-19T23:47:46.889Z,98516.91
2023-01-19T23:52:09.468Z,98517.40
2023-01-19T23:55:13.314Z,98518.01
2023-01-19T23:59:32.197Z,98521.16
